Time;durP1;ratioP1;P1;durP2;ratioP2;P2;SDS_P1;SDS_P2;PMS_P1;PMS_P2;Temp;Humidity;BMP_temperature;BMP_pressure;BME280_temperature;BME280_humidity;BME280_pressure;Samples;Min_cycle;Max_cycle;Signal;HPM_P1;HPM_P2
2022/09/02 00:02:16;;;;;;;2.88;2.50;;;;;;;15.60;nan;100582.81;5028946;28;20098;-69
2022/09/02 00:04:42;;;;;;;3.15;2.85;;;;;;;15.62;nan;100583.44;5028708;28;20464;-68
2022/09/02 00:07:08;;;;;;;3.08;2.75;;;;;;;15.61;nan;100588.97;5026333;28;20107;-68
2022/09/02 00:09:33;;;;;;;3.85;3.45;;;;;;;15.60;nan;100579.31;5026984;28;20291;-68
2022/09/02 00:11:59;;;;;;;3.42;2.85;;;;;;;15.58;nan;100576.00;5031477;28;20082;-68
2022/09/02 00:14:31;;;;;;;4.35;2.95;;;;;;;15.55;nan;100579.88;5033288;28;20033;-67
2022/09/02 00:16:59;;;;;;;3.72;3.33;;;;;;;15.52;nan;100574.91;5027028;28;20041;-67
2022/09/02 00:19:26;;;;;;;3.70;2.95;;;;;;;15.48;nan;100568.28;5030889;28;20136;-66
2022/09/02 00:21:52;;;;;;;3.13;2.20;;;;;;;15.60;nan;100576.66;5027822;28;20426;-69
2022/09/02 00:24:18;;;;;;;3.45;2.50;;;;;;;15.50;nan;100572.41;5031062;28;20033;-66
2022/09/02 00:26:44;;;;;;;3.22;2.88;;;;;;;15.44;nan;100570.47;5041304;28;20059;-66
2022/09/02 00:29:10;;;;;;;4.45;2.42;;;;;;;15.39;nan;100572.03;5031269;28;20076;-66
2022/09/02 00:31:36;;;;;;;4.78;3.10;;;;;;;15.34;nan;100572.56;5030753;28;20081;-66
2022/09/02 00:34:03;;;;;;;3.63;3.28;;;;;;;15.28;nan;100560.81;5029087;28;20492;-67
2022/09/02 00:36:29;;;;;;;3.45;2.78;;;;;;;15.25;nan;100568.34;5031300;28;20099;-66
2022/09/02 00:38:54;;;;;;;3.10;2.80;;;;;;;15.23;nan;100562.34;5029459;28;20037;-66
2022/09/02 00:41:24;;;;;;;3.35;2.70;;;;;;;15.20;nan;100568.06;5032451;28;20401;-66
2022/09/02 00:43:51;;;;;;;3.15;2.53;;;;;;;15.15;nan;100563.28;5030560;28;20036;-66
2022/09/02 00:46:20;;;;;;;4.07;3.13;;;;;;;15.10;nan;100549.66;5030083;28;20033;-66
2022/09/02 00:49:08;;;;;;;3.83;2.85;;;;;;;15.10;nan;100562.16;5033653;28;20590;-66
2022/09/02 00:51:44;;;;;;;4.07;3.10;;;;;;;15.05;nan;100554.72;5037835;28;20139;-66
2022/09/02 00:54:12;;;;;;;3.60;3.20;;;;;;;15.04;nan;100556.56;5037973;28;20497;-66
2022/09/02 00:56:40;;;;;;;3.40;3.00;;;;;;;15.04;nan;100545.91;5035710;28;20029;-66
2022/09/02 00:59:07;;;;;;;3.17;2.78;;;;;;;15.05;nan;100542.22;5030743;28;20040;-66
2022/09/02 01:01:32;;;;;;;3.88;2.80;;;;;;;15.06;nan;100541.22;5030255;28;20529;-66
2022/09/02 01:03:57;;;;;;;4.53;3.17;;;;;;;15.05;nan;100544.88;5030214;28;20143;-66
2022/09/02 01:06:26;;;;;;;3.33;3.03;;;;;;;15.06;nan;100545.72;5031665;28;20033;-66
2022/09/02 01:08:57;;;;;;;4.15;3.33;;;;;;;15.06;nan;100543.91;5029823;28;20441;-66
2022/09/02 01:11:26;;;;;;;5.38;3.22;;;;;;;15.05;nan;100544.88;5031022;28;20037;-66
2022/09/02 01:13:51;;;;;;;3.53;3.05;;;;;;;15.03;nan;100546.06;5031705;28;20083;-66
2022/09/02 01:16:26;;;;;;;4.32;3.60;;;;;;;15.11;nan;100546.03;5041927;28;20033;-67
2022/09/02 01:18:54;;;;;;;3.90;3.47;;;;;;;15.12;nan;100537.00;5032689;28;20546;-67
2022/09/02 01:21:22;;;;;;;3.58;3.15;;;;;;;15.11;nan;100532.69;5032982;28;20410;-67
2022/09/02 01:23:48;;;;;;;4.93;3.45;;;;;;;15.08;nan;100544.50;5033254;28;20889;-66
2022/09/02 01:26:13;;;;;;;3.40;3.10;;;;;;;15.03;nan;100540.75;5035541;28;20049;-66
2022/09/02 01:28:38;;;;;;;4.53;3.72;;;;;;;14.96;nan;100539.81;5031863;28;20116;-66
2022/09/02 01:31:04;;;;;;;3.88;3.20;;;;;;;14.91;nan;100547.53;5030005;28;20445;-66
2022/09/02 01:33:29;;;;;;;5.38;3.60;;;;;;;14.84;nan;100544.75;5031080;28;20150;-66
2022/09/02 01:35:55;;;;;;;3.97;3.35;;;;;;;14.79;nan;100547.13;5030962;28;20068;-66
2022/09/02 01:38:21;;;;;;;3.40;2.90;;;;;;;14.76;nan;100544.81;5029848;28;20038;-67
2022/09/02 01:40:46;;;;;;;5.47;3.50;;;;;;;14.70;nan;100540.19;5027029;28;20714;-66
2022/09/02 01:43:22;;;;;;;3.33;3.03;;;;;;;14.65;nan;100541.53;5035292;28;20038;-66
2022/09/02 01:45:50;;;;;;;4.95;3.30;;;;;;;14.61;nan;100540.28;5028700;28;20530;-67
2022/09/02 01:48:15;;;;;;;3.60;3.22;;;;;;;14.57;nan;100546.94;5033129;28;20033;-67
2022/09/02 01:50:44;;;;;;;3.92;3.20;;;;;;;14.52;nan;100537.81;5032431;28;20321;-66
2022/09/02 01:53:09;;;;;;;3.78;3.30;;;;;;;14.47;nan;100542.81;5028436;28;20049;-66
2022/09/02 01:55:35;;;;;;;3.65;3.13;;;;;;;14.44;nan;100541.34;5029968;28;20043;-67
2022/09/02 01:58:00;;;;;;;3.83;3.28;;;;;;;14.39;nan;100546.38;5029459;28;20132;-66
2022/09/02 02:00:26;;;;;;;4.32;2.88;;;;;;;14.34;nan;100538.91;5017101;28;20042;-66
2022/09/02 02:02:51;;;;;;;3.65;3.10;;;;;;;14.31;nan;100536.63;5027385;28;20060;-66
2022/09/02 02:05:17;;;;;;;3.78;2.70;;;;;;;14.30;nan;100539.44;5032741;28;20040;-66
2022/09/02 02:07:44;;;;;;;3.20;2.58;;;;;;;14.28;nan;100538.78;5028805;28;20124;-66
2022/09/02 02:10:10;;;;;;;3.97;2.90;;;;;;;14.26;nan;100530.19;5021663;28;20494;-67
2022/09/02 02:12:37;;;;;;;3.53;3.00;;;;;;;14.21;nan;100531.53;5032353;28;20045;-66
2022/09/02 02:15:05;;;;;;;3.58;2.90;;;;;;;14.22;nan;100530.50;5031828;28;20045;-66
2022/09/02 02:17:30;;;;;;;3.03;2.72;;;;;;;14.21;nan;100531.53;5034503;28;20132;-66
2022/09/02 02:19:56;;;;;;;4.70;3.40;;;;;;;14.19;nan;100530.88;5027381;28;20471;-66
2022/09/02 02:22:21;;;;;;;3.53;3.03;;;;;;;14.21;nan;100533.34;5035014;28;20047;-67
2022/09/02 02:24:47;;;;;;;4.35;3.00;;;;;;;14.23;nan;100536.69;5028036;28;20095;-66
2022/09/02 02:27:12;;;;;;;3.10;2.78;;;;;;;14.27;nan;100531.81;5032908;28;20387;-66
2022/09/02 02:29:38;;;;;;;2.80;2.50;;;;;;;14.28;nan;100534.31;5027527;28;20490;-66
2022/09/02 02:32:06;;;;;;;3.30;2.60;;;;;;;14.31;nan;100535.78;5028667;28;20113;-66
2022/09/02 02:34:31;;;;;;;4.20;3.33;;;;;;;14.35;nan;100531.75;5029229;28;20397;-66
2022/09/02 02:36:57;;;;;;;3.70;2.95;;;;;;;14.42;nan;100532.72;5033873;28;20037;-67
2022/09/02 02:39:22;;;;;;;2.85;2.50;;;;;;;14.41;nan;100531.06;5028711;28;20045;-67
2022/09/02 02:41:47;;;;;;;2.90;2.60;;;;;;;14.38;nan;100526.91;5026188;28;20576;-67
2022/09/02 02:44:13;;;;;;;3.10;2.75;;;;;;;14.35;nan;100523.78;5029696;28;20046;-67
2022/09/02 02:46:38;;;;;;;3.22;2.00;;;;;;;14.34;nan;100524.78;5027167;28;20029;-67
2022/09/02 02:49:04;;;;;;;2.75;2.30;;;;;;;14.30;nan;100520.81;5034012;28;20100;-67
2022/09/02 02:51:30;;;;;;;2.92;2.20;;;;;;;14.27;nan;100523.84;5030643;28;20057;-67
2022/09/02 02:53:56;;;;;;;2.25;1.92;;;;;;;14.24;nan;100525.03;5027228;28;20046;-67
2022/09/02 02:56:21;;;;;;;2.03;1.83;;;;;;;14.23;nan;100531.34;5028766;28;20052;-67
2022/09/02 02:58:47;;;;;;;3.05;2.10;;;;;;;14.26;nan;100530.19;5029373;28;20145;-67
2022/09/02 03:01:12;;;;;;;2.50;2.10;;;;;;;14.30;nan;100524.34;5019015;28;20036;-67
2022/09/02 03:03:37;;;;;;;2.83;2.20;;;;;;;14.33;nan;100528.47;5030188;28;20481;-67
2022/09/02 03:06:03;;;;;;;2.75;2.03;;;;;;;14.34;nan;100522.94;5024780;28;20034;-67
2022/09/02 03:08:29;;;;;;;2.97;2.00;;;;;;;14.33;nan;100521.31;5024310;28;20080;-67
2022/09/02 03:10:55;;;;;;;2.97;2.08;;;;;;;14.32;nan;100519.63;5032835;28;20060;-67
2022/09/02 03:13:22;;;;;;;2.75;2.08;;;;;;;14.35;nan;100516.66;5036707;28;20045;-67
2022/09/02 03:15:47;;;;;;;2.38;2.03;;;;;;;14.35;nan;100513.97;5032047;28;20042;-67
2022/09/02 03:18:13;;;;;;;3.15;2.20;;;;;;;14.34;nan;100514.16;5031916;28;20041;-67
2022/09/02 03:20:40;;;;;;;3.55;2.15;;;;;;;14.30;nan;100519.00;5031866;28;20149;-67
2022/09/02 03:23:05;;;;;;;2.80;2.20;;;;;;;14.27;nan;100521.19;5033123;28;20041;-68
2022/09/02 03:25:33;;;;;;;2.75;2.45;;;;;;;14.24;nan;100512.53;5031499;28;20033;-67
2022/09/02 03:27:59;;;;;;;3.00;2.30;;;;;;;14.19;nan;100514.09;5037590;28;20354;-67
2022/09/02 03:30:28;;;;;;;2.70;2.15;;;;;;;14.14;nan;100509.28;5031668;28;20086;-68
2022/09/02 03:32:56;;;;;;;2.35;1.90;;;;;;;14.10;nan;100521.28;5032369;28;20468;-67
2022/09/02 03:35:22;;;;;;;3.13;2.30;;;;;;;14.07;nan;100513.66;5034443;28;20030;-67
2022/09/02 03:37:49;;;;;;;2.20;2.00;;;;;;;14.03;nan;100515.81;5032367;28;20506;-67
2022/09/02 03:40:23;;;;;;;2.72;2.13;;;;;;;13.98;nan;100510.19;5031602;28;20030;-67
2022/09/02 03:42:48;;;;;;;3.30;2.60;;;;;;;13.95;nan;100515.06;5029090;28;20048;-69
2022/09/02 03:45:14;;;;;;;2.60;2.10;;;;;;;13.90;nan;100514.75;5028990;28;20045;-69
2022/09/02 03:47:44;;;;;;;3.92;2.47;;;;;;;13.83;nan;100511.13;5036956;28;20517;-69
2022/09/02 03:50:10;;;;;;;2.92;2.40;;;;;;;13.77;nan;100513.44;5021581;28;20254;-69
2022/09/02 03:52:36;;;;;;;2.80;2.38;;;;;;;13.75;nan;100510.16;5032771;28;20055;-69
2022/09/02 03:55:04;;;;;;;3.08;2.78;;;;;;;13.71;nan;100513.34;5028386;28;20054;-69
2022/09/02 03:57:30;;;;;;;2.95;2.20;;;;;;;13.66;nan;100508.53;5030522;28;20040;-69
2022/09/02 03:59:55;;;;;;;5.25;2.88;;;;;;;13.57;nan;100517.53;5039991;28;20387;-69
2022/09/02 04:02:21;;;;;;;3.75;3.00;;;;;;;13.65;nan;100512.19;5028022;28;20051;-69
2022/09/02 04:04:46;;;;;;;3.38;2.90;;;;;;;13.69;nan;100507.38;5026246;28;20065;-68
2022/09/02 04:07:11;;;;;;;2.97;2.38;;;;;;;13.72;nan;100510.50;5029172;28;20132;-68
2022/09/02 04:09:37;;;;;;;3.10;2.60;;;;;;;13.72;nan;100515.81;5026491;28;20175;-69
2022/09/02 04:12:03;;;;;;;5.32;3.03;;;;;;;13.72;nan;100504.34;5034448;28;20030;-69
2022/09/02 04:14:29;;;;;;;3.80;2.80;;;;;;;13.80;nan;100514.97;5031299;28;20033;-69
2022/09/02 04:16:54;;;;;;;3.80;2.72;;;;;;;13.83;nan;100503.97;5029030;28;20333;-69
2022/09/02 04:19:19;;;;;;;3.90;2.67;;;;;;;13.78;nan;100509.00;5028459;28;20329;-68
2022/09/02 04:21:45;;;;;;;3.43;2.50;;;;;;;13.74;nan;100507.66;5026959;28;20029;-69
2022/09/02 04:24:10;;;;;;;2.30;2.10;;;;;;;13.70;nan;100517.81;5031771;28;20295;-69
2022/09/02 04:26:36;;;;;;;3.22;2.45;;;;;;;13.68;nan;100522.50;5035246;28;20664;-69
2022/09/02 04:29:02;;;;;;;2.80;2.50;;;;;;;13.73;nan;100516.63;5026226;28;20520;-69
2022/09/02 04:31:29;;;;;;;3.22;2.70;;;;;;;13.73;nan;100512.16;5028361;28;20057;-68
2022/09/02 04:33:55;;;;;;;3.22;2.40;;;;;;;13.72;nan;100514.97;5027063;28;20037;-69
2022/09/02 04:36:22;;;;;;;2.10;1.73;;;;;;;13.69;nan;100520.66;5026614;28;20037;-69
2022/09/02 04:38:47;;;;;;;2.88;2.20;;;;;;;13.66;nan;100511.19;5032949;28;20037;-69
2022/09/02 04:41:21;;;;;;;4.38;2.60;;;;;;;13.66;nan;100513.84;5026415;28;20079;-68
2022/09/02 04:43:46;;;;;;;2.80;2.40;;;;;;;13.68;nan;100516.31;5025728;28;20037;-69
2022/09/02 04:46:14;;;;;;;2.42;1.90;;;;;;;13.67;nan;100523.47;5031622;28;20103;-69
2022/09/02 04:48:40;;;;;;;2.35;2.00;;;;;;;13.64;nan;100518.50;5029938;28;20405;-68
2022/09/02 04:51:08;;;;;;;3.80;2.05;;;;;;;13.64;nan;100517.69;5026221;28;20141;-69
2022/09/02 04:53:34;;;;;;;2.45;1.80;;;;;;;13.63;nan;100516.84;5028246;28;20123;-69
2022/09/02 04:56:02;;;;;;;2.58;2.00;;;;;;;13.65;nan;100524.66;5026107;28;20702;-69
2022/09/02 04:58:27;;;;;;;2.33;1.92;;;;;;;13.67;nan;100525.31;5036472;28;20162;-69
2022/09/02 05:00:53;;;;;;;2.40;1.83;;;;;;;13.70;nan;100522.28;5026144;28;20291;-69
2022/09/02 05:03:18;;;;;;;2.40;1.80;;;;;;;13.76;nan;100519.78;5026564;28;20311;-69
2022/09/02 05:05:44;;;;;;;2.72;1.80;;;;;;;13.88;nan;100516.75;5026315;28;20494;-69
2022/09/02 05:08:11;;;;;;;2.88;1.80;;;;;;;14.02;nan;100516.84;5030095;28;20040;-69
2022/09/02 05:10:39;;;;;;;2.97;1.85;;;;;;;14.06;nan;100522.63;5026831;28;20038;-69
2022/09/02 05:13:04;;;;;;;1.90;1.58;;;;;;;14.28;nan;100522.81;5032437;28;20530;-69
2022/09/02 05:15:30;;;;;;;2.75;1.77;;;;;;;14.45;nan;100519.88;5027629;28;20259;-69
2022/09/02 05:17:56;;;;;;;2.13;1.58;;;;;;;14.61;nan;100521.66;5031480;28;20410;-69
2022/09/02 05:20:22;;;;;;;2.10;1.40;;;;;;;14.76;nan;100521.69;5024013;28;20059;-69
2022/09/02 05:22:48;;;;;;;1.80;1.25;;;;;;;14.85;nan;100522.44;5025450;28;20029;-69
2022/09/02 05:25:14;;;;;;;2.33;1.30;;;;;;;14.94;nan;100521.34;5029824;28;20033;-69
2022/09/02 05:27:39;;;;;;;2.40;1.50;;;;;;;14.98;nan;100524.50;5033458;28;20417;-68
2022/09/02 05:30:05;;;;;;;2.67;2.00;;;;;;;14.96;nan;100519.34;5025265;28;20490;-69
2022/09/02 05:32:31;;;;;;;1.70;1.30;;;;;;;15.00;nan;100523.31;5024396;28;20264;-69
2022/09/02 05:34:56;;;;;;;1.88;1.52;;;;;;;15.18;nan;100522.97;5027300;28;20120;-69
2022/09/02 05:37:23;;;;;;;2.95;1.63;;;;;;;15.28;nan;100528.03;5033556;28;20025;-69
2022/09/02 05:39:49;;;;;;;2.08;1.48;;;;;;;15.41;nan;100527.38;5026152;28;20037;-69
2022/09/02 05:42:15;;;;;;;2.47;1.50;;;;;;;15.63;nan;100525.63;5027019;28;20275;-69
2022/09/02 05:44:43;;;;;;;2.38;1.80;;;;;;;15.97;nan;100529.56;5025147;28;20033;-69
2022/09/02 05:47:08;;;;;;;2.08;1.40;;;;;;;16.23;nan;100529.03;5031077;28;20041;-69
2022/09/02 05:49:34;;;;;;;2.22;1.52;;;;;;;16.46;nan;100523.53;5025762;28;20036;-69
2022/09/02 05:52:00;;;;;;;1.87;1.20;;;;;;;16.77;nan;100531.22;5026268;28;20029;-69
2022/09/02 05:54:29;;;;;;;1.60;1.10;;;;;;;17.22;nan;100528.31;5027117;28;20343;-69
2022/09/02 05:56:58;;;;;;;3.40;1.70;;;;;;;17.64;nan;100530.03;5025710;28;20045;-69
2022/09/02 05:59:25;;;;;;;2.67;1.50;;;;;;;17.95;nan;100524.22;5032929;28;20498;-68
2022/09/02 06:01:52;;;;;;;2.22;1.35;;;;;;;18.25;nan;100527.38;5028010;28;20510;-68
2022/09/02 06:04:17;;;;;;;2.20;1.20;;;;;;;18.58;nan;100528.47;5029793;28;20429;-68
2022/09/02 06:06:43;;;;;;;2.97;1.20;;;;;;;18.93;nan;100531.00;5032370;28;20120;-68
2022/09/02 06:09:11;;;;;;;1.92;1.30;;;;;;;19.21;nan;100528.06;5031295;28;20099;-68
2022/09/02 06:11:39;;;;;;;3.13;1.42;;;;;;;19.54;nan;100525.31;5029301;28;20096;-68
2022/09/02 06:14:06;;;;;;;2.65;1.40;;;;;;;19.71;nan;100526.56;5031693;28;20048;-68
2022/09/02 06:16:32;;;;;;;2.47;1.20;;;;;;;19.96;nan;100527.69;5028842;28;20113;-68
2022/09/02 06:18:57;;;;;;;2.40;1.30;;;;;;;20.24;nan;100521.97;5038206;28;20056;-69
2022/09/02 06:21:23;;;;;;;3.45;1.27;;;;;;;20.46;nan;100525.97;5030707;28;20041;-68
2022/09/02 06:23:49;;;;;;;2.58;1.30;;;;;;;20.79;nan;100525.75;5029248;28;20034;-68
2022/09/02 06:26:16;;;;;;;2.42;1.20;;;;;;;21.14;nan;100527.94;5038756;28;20068;-68
2022/09/02 06:28:42;;;;;;;2.00;1.23;;;;;;;21.27;nan;100524.28;5016214;28;20055;-68
2022/09/02 06:31:11;;;;;;;1.80;1.17;;;;;;;21.52;nan;100523.44;5031675;28;20124;-68
2022/09/02 06:33:37;;;;;;;;;;;;;;;21.73;nan;100528.34;5029431;28;20402;-70
2022/09/02 06:36:06;;;;;;;1.60;1.00;;;;;;;21.99;nan;100529.91;5028159;28;19917;-70
2022/09/02 06:38:35;;;;;;;1.80;1.10;;;;;;;22.19;nan;100523.41;5027022;28;20406;-69
2022/09/02 06:41:01;;;;;;;1.27;1.05;;;;;;;22.10;nan;100517.53;5015513;28;20041;-70
2022/09/02 06:43:26;;;;;;;2.28;1.23;;;;;;;22.24;nan;100523.59;5024833;28;20041;-70
2022/09/02 06:45:52;;;;;;;1.95;1.20;;;;;;;22.40;nan;100522.94;5030064;28;20076;-70
2022/09/02 06:48:17;;;;;;;1.98;0.93;;;;;;;22.65;nan;100519.25;5020576;28;20048;-70
2022/09/02 06:50:45;;;;;;;1.65;1.10;;;;;;;22.80;nan;100521.50;5029210;28;20049;-70
2022/09/02 06:53:12;;;;;;;1.90;1.00;;;;;;;22.91;nan;100520.69;5032649;28;20075;-70
2022/09/02 06:55:39;;;;;;;1.77;1.10;;;;;;;22.96;nan;100523.50;5030223;28;20052;-70
2022/09/02 06:58:05;;;;;;;1.63;1.00;;;;;;;23.00;nan;100524.72;5030501;28;20394;-70
2022/09/02 07:00:31;;;;;;;1.50;1.08;;;;;;;23.15;nan;100518.84;5032758;28;20045;-70
2022/09/02 07:05:43;;;;;;;1.52;0.93;;;;;;;23.68;nan;100512.44;5028168;28;20088;-70
2022/09/02 07:08:08;;;;;;;2.00;1.02;;;;;;;24.15;nan;100516.88;5030966;28;20049;-70
2022/09/02 07:10:38;;;;;;;;;;;;;;;24.34;nan;100515.59;5034192;28;20152;-70
2022/09/02 07:13:03;;;;;;;2.17;0.95;;;;;;;24.39;nan;100517.59;5031100;28;20324;-70
2022/09/02 07:15:29;;;;;;;;;;;;;;;24.46;nan;100517.44;5030921;28;20034;-70
2022/09/02 07:17:54;;;;;;;2.45;1.00;;;;;;;24.31;nan;100516.09;5033411;28;20069;-70
2022/09/02 07:20:20;;;;;;;1.45;0.90;;;;;;;24.46;nan;100514.72;5032936;28;20498;-70
2022/09/02 07:22:45;;;;;;;2.10;1.10;;;;;;;24.66;nan;100519.69;5030798;28;20037;-70
2022/09/02 07:25:11;;;;;;;1.60;1.00;;;;;;;24.66;nan;100516.97;5036030;28;20029;-70
2022/09/02 07:27:36;;;;;;;2.05;1.20;;;;;;;24.78;nan;100518.53;5038449;28;20636;-70
2022/09/02 07:30:03;;;;;;;1.92;1.10;;;;;;;24.80;nan;100518.28;5029436;28;20100;-70
2022/09/02 07:32:29;;;;;;;3.85;1.33;;;;;;;24.87;nan;100507.31;5026853;28;20127;-70
2022/09/02 07:34:55;;;;;;;1.75;1.00;;;;;;;24.75;nan;100508.22;5025898;28;20041;-70
2022/09/02 07:37:20;;;;;;;1.33;0.90;;;;;;;24.97;nan;100508.28;5034123;28;20056;-70
2022/09/02 07:39:45;;;;;;;3.00;1.10;;;;;;;25.46;nan;100517.63;5027606;28;20044;-70
2022/09/02 07:42:11;;;;;;;1.58;1.00;;;;;;;25.50;nan;100506.03;5028771;28;20430;-69
2022/09/02 07:44:36;;;;;;;2.17;0.90;;;;;;;25.37;nan;100509.94;5030631;28;20128;-70
2022/09/02 07:47:03;;;;;;;2.75;1.10;;;;;;;25.39;nan;100498.88;5030989;28;20065;-70
2022/09/02 07:49:28;;;;;;;1.65;1.00;;;;;;;25.45;nan;100497.03;5027752;28;20033;-70
2022/09/02 07:51:53;;;;;;;2.25;0.93;;;;;;;25.62;nan;100500.50;5031923;28;20747;-69
2022/09/02 07:54:21;;;;;;;2.55;1.20;;;;;;;25.56;nan;100499.63;5034326;28;20456;-69
2022/09/02 07:56:48;;;;;;;1.92;1.10;;;;;;;25.64;nan;100487.53;5025975;28;20045;-70
2022/09/02 07:59:14;;;;;;;2.72;1.00;;;;;;;26.01;nan;100493.13;5024141;28;20030;-70
2022/09/02 08:01:42;;;;;;;1.92;1.20;;;;;;;26.39;nan;100495.94;5028275;28;20032;-70
2022/09/02 08:04:07;;;;;;;3.22;1.00;;;;;;;26.37;nan;100487.25;5038991;28;20033;-70
2022/09/02 08:06:32;;;;;;;2.30;0.93;;;;;;;26.30;nan;100500.19;5038968;28;20029;-70
2022/09/02 08:08:58;;;;;;;2.83;1.00;;;;;;;26.11;nan;100494.31;5029964;28;20291;-69
2022/09/02 08:11:23;;;;;;;1.45;0.90;;;;;;;26.31;nan;100480.94;5027596;28;20040;-70
2022/09/02 08:13:49;;;;;;;2.10;1.00;;;;;;;26.53;nan;100502.56;5026341;28;20518;-70
2022/09/02 08:16:15;;;;;;;2.08;1.00;;;;;;;26.39;nan;100495.94;5026967;28;20497;-69
2022/09/02 08:18:41;;;;;;;3.97;1.35;;;;;;;26.44;nan;100488.66;5026532;28;20083;-70
2022/09/02 08:21:06;;;;;;;2.63;1.10;;;;;;;26.75;nan;100494.34;5027336;28;20047;-70
2022/09/02 08:23:31;;;;;;;2.30;1.05;;;;;;;26.78;nan;100493.03;5031699;28;20037;-71
2022/09/02 08:26:01;;;;;;;1.50;0.97;;;;;;;27.01;nan;100502.69;5027714;28;20033;-70
2022/09/02 08:28:27;;;;;;;1.77;1.10;;;;;;;27.03;nan;100500.50;5027552;28;20347;-70
2022/09/02 08:30:53;;;;;;;1.63;0.90;;;;;;;27.07;nan;100504.34;5026037;28;20585;-70
2022/09/02 08:33:19;;;;;;;2.03;0.93;;;;;;;27.66;nan;100498.69;5028844;28;20120;-70
2022/09/02 08:35:45;;;;;;;2.33;0.90;;;;;;;28.25;nan;100502.94;5027579;28;20112;-69
2022/09/02 08:38:10;;;;;;;;;;;;;;;28.37;nan;100486.34;5027357;28;20094;-70
2022/09/02 08:40:40;;;;;;;1.60;0.97;;;;;;;28.63;nan;100484.47;5026583;28;19921;-70
2022/09/02 08:43:38;;;;;;;1.42;0.90;;;;;;;29.05;nan;100496.09;5029720;28;20124;-70
2022/09/02 08:46:07;;;;;;;1.13;0.85;;;;;;;29.46;nan;100496.00;5023169;28;20045;-70
2022/09/02 08:48:44;;;;;;;3.13;0.95;;;;;;;29.49;nan;100496.28;5026326;28;20033;-70
2022/09/02 08:51:15;;;;;;;;;;;;;;;29.58;nan;100493.78;5027518;28;20076;-70
2022/09/02 08:54:03;;;;;;;1.20;0.90;;;;;;;30.16;nan;100494.03;5023955;28;19924;-70
2022/09/02 08:56:30;;;;;;;2.00;1.00;;;;;;;30.15;nan;100486.13;5029478;28;20037;-69
2022/09/02 08:58:56;;;;;;;2.08;1.10;;;;;;;30.18;nan;100491.03;5028682;28;20179;-69
2022/09/02 09:01:52;;;;;;;1.35;0.90;;;;;;;29.97;nan;100479.44;5025910;28;20041;-70
2022/09/02 09:04:31;;;;;;;1.50;0.80;;;;;;;30.24;nan;100489.88;5023097;28;20045;-70
2022/09/02 09:07:07;;;;;;;1.05;0.70;;;;;;;30.55;nan;100485.00;5029699;28;20046;-70
2022/09/02 09:09:56;;;;;;;2.20;1.08;;;;;;;30.96;nan;100478.38;5028441;28;20029;-70
2022/09/02 09:12:37;;;;;;;1.38;0.90;;;;;;;31.69;nan;100482.72;5031572;28;20518;-69
2022/09/02 09:15:08;;;;;;;1.80;1.05;;;;;;;31.45;nan;100480.84;5022973;28;20045;-69
2022/09/02 09:17:41;;;;;;;;;;;;;;;31.55;nan;100479.09;5021863;28;20379;-70
2022/09/02 09:20:14;;;;;;;2.08;0.95;;;;;;;32.00;nan;100471.38;5026275;28;20015;-71
2022/09/02 09:22:41;;;;;;;1.17;0.70;;;;;;;32.09;nan;100464.94;5026172;28;20091;-70
2022/09/02 09:25:14;;;;;;;1.58;0.65;;;;;;;33.00;nan;100469.13;5027853;28;20095;-70
2022/09/02 09:27:40;;;;;;;1.42;0.80;;;;;;;33.39;nan;100465.88;5030652;28;20112;-70
2022/09/02 09:30:08;;;;;;;2.90;0.85;;;;;;;33.30;nan;100480.59;5026160;28;20657;-71
2022/09/02 09:32:41;;;;;;;1.23;0.80;;;;;;;32.82;nan;100462.59;5024312;28;20037;-70
2022/09/02 09:35:10;;;;;;;1.63;1.02;;;;;;;33.06;nan;100467.94;5026676;28;20068;-70
2022/09/02 09:37:39;;;;;;;2.80;0.80;;;;;;;33.18;nan;100460.03;5025970;28;20085;-70
2022/09/02 09:40:22;;;;;;;1.67;0.90;;;;;;;33.12;nan;100463.19;5029555;28;20187;-70
2022/09/02 09:43:07;;;;;;;1.00;0.70;;;;;;;32.83;nan;100460.69;5024398;28;20116;-70
2022/09/02 09:45:40;;;;;;;2.42;0.80;;;;;;;33.26;nan;100461.25;5022396;28;20091;-70
2022/09/02 09:48:15;;;;;;;0.95;0.70;;;;;;;33.71;nan;100460.59;5028278;28;20041;-74
2022/09/02 09:50:40;;;;;;;1.27;0.82;;;;;;;34.25;nan;100456.03;5030208;28;20044;-68
2022/09/02 09:53:19;;;;;;;1.05;0.75;;;;;;;33.89;nan;100456.84;5028468;28;20037;-68
2022/09/02 09:56:01;;;;;;;1.20;0.70;;;;;;;33.66;nan;100444.22;5027913;28;20067;-68
2022/09/02 09:58:35;;;;;;;2.30;0.90;;;;;;;33.54;nan;100456.53;5028639;28;20120;-69
2022/09/02 10:01:20;;;;;;;1.63;0.75;;;;;;;33.22;nan;100443.78;5033978;28;20104;-70
2022/09/02 10:04:06;;;;;;;1.67;0.88;;;;;;;33.20;nan;100440.53;5028217;28;20520;-70
2022/09/02 10:06:31;;;;;;;1.95;0.90;;;;;;;33.38;nan;100447.81;5030097;28;20049;-71
2022/09/02 10:08:58;;;;;;;2.03;0.90;;;;;;;34.03;nan;100446.63;5023616;28;20052;-70
2022/09/02 10:11:32;;;;;;;1.38;0.70;;;;;;;34.48;nan;100441.16;5021423;28;20389;-71
2022/09/02 10:14:01;;;;;;;1.08;0.70;;;;;;;34.26;nan;100449.44;5023115;28;20119;-70
2022/09/02 10:16:44;;;;;;;2.95;0.90;;;;;;;34.36;nan;100440.91;5025500;28;20041;-70
2022/09/02 10:19:18;;;;;;;1.27;0.75;;;;;;;34.78;nan;100444.25;5032940;28;20049;-70
2022/09/02 10:22:03;;;;;;;1.45;0.80;;;;;;;34.11;nan;100436.06;5030756;28;20690;-69
2022/09/02 10:24:40;;;;;;;1.30;0.80;;;;;;;34.11;nan;100445.13;5033494;28;20064;-69
2022/09/02 10:27:14;;;;;;;1.40;0.70;;;;;;;35.18;nan;100433.22;5038978;28;20054;-69
2022/09/02 10:29:57;;;;;;;1.33;0.60;;;;;;;34.76;nan;100429.22;5038635;28;20041;-68
2022/09/02 10:32:38;;;;;;;1.40;0.88;;;;;;;35.09;nan;100429.66;5034445;28;20052;-69
2022/09/02 10:35:23;;;;;;;1.30;0.73;;;;;;;35.43;nan;100430.88;5035222;28;20411;-69
2022/09/02 10:38:12;;;;;;;1.98;0.80;;;;;;;35.56;nan;100424.41;5026492;28;20033;-68
2022/09/02 10:40:44;;;;;;;1.80;0.77;;;;;;;35.37;nan;100423.91;5011785;28;20510;-69
2022/09/02 10:43:27;;;;;;;0.80;0.68;;;;;;;35.73;nan;100423.63;5032957;28;20037;-69
2022/09/02 10:46:00;;;;;;;2.15;0.80;;;;;;;36.13;nan;100413.25;5034487;28;20041;-69
2022/09/02 10:48:56;;;;;;;0.95;0.68;;;;;;;36.29;nan;100415.50;5032144;28;20059;-69
2022/09/02 10:51:35;;;;;;;1.08;0.70;;;;;;;36.44;nan;100416.91;5029098;28;20068;-68
2022/09/02 10:54:17;;;;;;;1.15;0.70;;;;;;;36.00;nan;100411.47;5020120;28;20052;-69
2022/09/02 10:56:59;;;;;;;2.55;0.80;;;;;;;36.38;nan;100405.28;5022329;28;20116;-69
2022/09/02 10:59:34;;;;;;;2.00;0.95;;;;;;;36.65;nan;100409.56;5033511;28;20030;-69
2022/09/02 11:02:10;;;;;;;1.58;0.90;;;;;;;36.75;nan;100398.16;5034907;28;20094;-69
2022/09/02 11:04:45;;;;;;;;;;;;;;;36.90;nan;100398.75;5029779;28;20045;-69
2022/09/02 11:07:17;;;;;;;1.00;0.60;;;;;;;36.95;nan;100391.09;5035266;28;19917;-69
2022/09/02 11:09:45;;;;;;;2.13;0.80;;;;;;;36.52;nan;100389.34;5034614;28;20060;-68
2022/09/02 11:12:21;;;;;;;1.15;0.85;;;;;;;34.21;nan;100387.25;5033678;28;20033;-69
2022/09/02 11:15:11;;;;;;;2.08;0.75;;;;;;;34.73;nan;100378.47;5024614;28;20029;-68
2022/09/02 11:17:48;;;;;;;1.50;0.80;;;;;;;35.20;nan;100367.75;5044281;28;20033;-68
2022/09/02 11:20:37;;;;;;;1.20;0.80;;;;;;;35.53;nan;100368.09;5032550;28;20045;-68
2022/09/02 11:23:19;;;;;;;1.95;0.90;;;;;;;35.51;nan;100369.56;5024176;28;20063;-70
2022/09/02 11:26:06;;;;;;;2.03;0.90;;;;;;;35.93;nan;100356.94;5028493;28;20029;-70
2022/09/02 11:28:54;;;;;;;1.50;0.80;;;;;;;37.28;nan;100362.88;5026979;28;20578;-71
2022/09/02 11:31:31;;;;;;;1.05;0.80;;;;;;;37.98;nan;100354.78;5027362;28;20041;-70
2022/09/02 11:34:11;;;;;;;1.48;0.73;;;;;;;39.35;nan;100361.97;5027728;28;20041;-70
2022/09/02 11:36:39;;;;;;;3.13;0.85;;;;;;;39.27;nan;100353.44;5027425;28;20037;-70
2022/09/02 11:39:12;;;;;;;2.05;0.70;;;;;;;38.03;nan;100351.03;5025460;28;20044;-70
2022/09/02 11:42:10;;;;;;;1.58;0.70;;;;;;;37.69;nan;100339.19;5024812;28;20136;-70
2022/09/02 11:45:04;;;;;;;1.25;0.70;;;;;;;36.71;nan;100339.38;5012178;28;20091;-70
2022/09/02 11:47:45;;;;;;;1.13;0.68;;;;;;;37.11;nan;100341.72;5030033;28;20037;-69
2022/09/02 11:50:29;;;;;;;1.10;0.60;;;;;;;36.17;nan;100333.59;5025841;28;20033;-70
2022/09/02 11:53:19;;;;;;;0.90;0.60;;;;;;;37.01;nan;100336.59;5025205;28;20115;-69
2022/09/02 11:56:03;;;;;;;1.77;0.67;;;;;;;37.01;nan;100333.03;5028259;28;20107;-69
2022/09/02 11:58:50;;;;;;;2.38;0.75;;;;;;;35.88;nan;100332.34;5026831;28;20033;-69